Time;durP1;ratioP1;P1;durP2;ratioP2;P2;SDS_P1;SDS_P2;PMS_P1;PMS_P2;Temp;Humidity;BMP_temperature;BMP_pressure;BME280_temperature;BME280_humidity;BME280_pressure;Samples;Min_cycle;Max_cycle;Signal;HPM_P1;HPM_P2
2022/12/11 00:02:07;;;;;;;1.33;0.73;;;;;;;-2.25;68.56;101269.38;5046255;27;20048;-75
2022/12/11 00:04:33;;;;;;;2.67;0.95;;;;;;;-2.30;68.56;101266.66;5095373;28;20048;-75
2022/12/11 00:07:00;;;;;;;3.05;0.93;;;;;;;-2.27;68.67;101276.16;5098196;28;20048;-75
2022/12/11 00:09:27;;;;;;;2.08;1.10;;;;;;;-2.27;68.92;101271.91;5099244;28;20047;-75
2022/12/11 00:11:54;;;;;;;3.13;0.90;;;;;;;-2.28;68.74;101264.16;5097405;27;20047;-75
2022/12/11 00:14:20;;;;;;;1.77;0.68;;;;;;;-2.27;68.91;101263.34;5094917;27;20051;-75
2022/12/11 00:16:49;;;;;;;3.58;0.80;;;;;;;-2.28;68.48;101267.59;5098006;28;20108;-75
2022/12/11 00:19:16;;;;;;;2.28;0.95;;;;;;;-2.28;68.57;101264.16;5098759;27;20139;-75
2022/12/11 00:21:43;;;;;;;1.70;0.85;;;;;;;-2.36;69.01;101256.19;5098405;28;20051;-76
2022/12/11 00:24:09;;;;;;;3.17;1.52;;;;;;;-2.28;68.68;101271.81;5100801;28;20720;-75
2022/12/11 00:26:36;;;;;;;5.47;1.10;;;;;;;-2.27;68.46;101276.16;5098231;27;20629;-75
2022/12/11 00:29:03;;;;;;;2.40;0.93;;;;;;;-2.27;69.01;101276.16;5096980;28;20109;-76
2022/12/11 00:31:30;;;;;;;3.67;1.00;;;;;;;-2.28;68.95;101271.81;5096444;28;20043;-76
2022/12/11 00:33:58;;;;;;;2.90;0.85;;;;;;;-2.28;69.07;101279.50;5095183;27;20503;-75
2022/12/11 00:36:27;;;;;;;1.50;0.90;;;;;;;-2.28;68.97;101279.50;5096285;27;20146;-75
2022/12/11 00:38:54;;;;;;;4.60;1.30;;;;;;;-2.39;68.55;101257.72;5096103;28;20052;-77
2022/12/11 00:41:21;;;;;;;4.15;1.23;;;;;;;-2.31;68.91;101264.03;5091660;28;20576;-75
2022/12/11 00:43:48;;;;;;;1.77;0.80;;;;;;;-2.28;68.83;101279.50;5087943;28;20463;-75
2022/12/11 00:46:15;;;;;;;1.98;0.98;;;;;;;-2.30;68.80;101276.03;5094052;28;20048;-75
2022/12/11 00:48:42;;;;;;;2.75;1.15;;;;;;;-2.29;68.91;101272.66;5096057;28;20040;-75
2022/12/11 00:51:10;;;;;;;1.73;0.68;;;;;;;-2.30;68.78;101270.91;5096213;28;20086;-75
2022/12/11 00:53:37;;;;;;;1.30;0.70;;;;;;;-2.30;68.79;101273.47;5098196;28;20680;-76
2022/12/11 00:56:10;;;;;;;2.08;0.93;;;;;;;-2.31;68.86;101271.69;5096115;28;20671;-75
2022/12/11 00:58:37;;;;;;;5.78;0.68;;;;;;;-2.31;69.26;101269.13;5096208;27;20505;-75
2022/12/11 01:01:08;;;;;;;3.78;0.95;;;;;;;-2.30;69.36;101271.78;5094435;28;20052;-75
2022/12/11 01:03:35;;;;;;;2.15;0.82;;;;;;;-2.30;69.00;101281.16;5097164;27;20336;-75
2022/12/11 01:06:01;;;;;;;2.25;1.15;;;;;;;-2.31;68.92;101280.25;5095823;28;20044;-75
2022/12/11 01:08:30;;;;;;;2.88;0.60;;;;;;;-2.41;68.91;101264.47;5094849;28;20047;-77
2022/12/11 01:11:04;;;;;;;1.25;0.50;;;;;;;-2.30;68.78;101284.56;5100185;28;20473;-74
2022/12/11 01:13:31;;;;;;;2.05;0.82;;;;;;;-2.30;68.69;101286.25;5092427;28;20126;-75
2022/12/11 01:15:58;;;;;;;2.17;0.90;;;;;;;-2.30;68.86;101281.16;5100244;27;20063;-76
2022/12/11 01:18:25;;;;;;;1.08;0.60;;;;;;;-2.41;68.82;101265.34;5093528;27;20119;-75
2022/12/11 01:20:52;;;;;;;2.78;0.63;;;;;;;-2.51;68.88;101251.28;5095133;28;20101;-75
2022/12/11 01:23:18;;;;;;;2.13;0.60;;;;;;;-2.33;68.80;101283.59;5097996;28;20036;-75
2022/12/11 01:25:47;;;;;;;1.10;0.60;;;;;;;-2.31;68.79;101294.72;5095884;28;20055;-78
2022/12/11 01:28:13;;;;;;;1.15;0.60;;;;;;;-2.32;68.93;101290.44;5099430;27;20074;-75
2022/12/11 01:30:42;;;;;;;1.00;0.70;;;;;;;-2.38;68.78;101280.81;5093776;28;20048;-75
2022/12/11 01:33:09;;;;;;;1.95;0.65;;;;;;;-2.33;68.79;101293.81;5094923;27;20047;-76
2022/12/11 01:35:35;;;;;;;1.83;0.50;;;;;;;-2.34;69.05;101289.47;5094172;28;20104;-75
2022/12/11 01:38:02;;;;;;;3.35;0.50;;;;;;;-2.35;69.01;101287.75;5090028;28;20051;-76
2022/12/11 01:40:30;;;;;;;1.35;0.63;;;;;;;-2.36;68.61;101289.44;5093947;28;20071;-76
2022/12/11 01:42:58;;;;;;;1.10;0.60;;;;;;;-2.36;68.95;101291.09;5100328;27;20060;-76
2022/12/11 01:45:29;;;;;;;1.33;0.45;;;;;;;-2.36;69.01;101291.09;5095056;28;20063;-75
2022/12/11 01:48:02;;;;;;;1.33;0.47;;;;;;;-2.46;68.94;101283.88;5093736;28;20047;-75
2022/12/11 01:50:31;;;;;;;1.70;0.98;;;;;;;-2.38;69.15;101300.41;5099642;27;20055;-75
2022/12/11 01:52:58;;;;;;;3.58;1.05;;;;;;;-2.38;68.85;101302.97;5095714;28;20048;-75
2022/12/11 01:55:25;;;;;;;5.35;0.90;;;;;;;-2.38;68.61;101302.97;5098229;28;20094;-76
2022/12/11 01:57:53;;;;;;;2.08;0.70;;;;;;;-2.39;68.80;101301.19;5098230;28;20070;-75
2022/12/11 02:00:22;;;;;;;1.33;0.60;;;;;;;-2.39;68.92;101297.00;5092002;28;20052;-74
2022/12/11 02:02:48;;;;;;;6.60;1.27;;;;;;;-2.40;68.87;101295.22;5097003;28;20039;-75
2022/12/11 02:05:15;;;;;;;2.58;0.80;;;;;;;-2.42;68.98;101301.06;5094944;28;20105;-77
2022/12/11 02:07:46;;;;;;;2.00;0.60;;;;;;;-2.41;68.94;101298.59;5094655;28;20051;-75
2022/12/11 02:10:13;;;;;;;2.38;0.70;;;;;;;-2.40;68.82;101294.34;5093814;28;20055;-76
2022/12/11 02:12:51;;;;;;;2.28;0.70;;;;;;;-2.40;68.57;101299.47;5095343;27;20046;-75
2022/12/11 02:15:25;;;;;;;1.77;0.75;;;;;;;-2.41;68.84;101290.06;5094514;28;20085;-75
2022/12/11 02:18:00;;;;;;;0.93;0.52;;;;;;;-2.48;68.81;101276.09;5095040;27;20040;-75
2022/12/11 02:20:34;;;;;;;0.85;0.60;;;;;;;-2.40;68.79;101294.34;5093595;28;20491;-75
2022/12/11 02:23:19;;;;;;;1.90;0.60;;;;;;;-2.41;68.71;101290.94;5093079;28;20048;-76
2022/12/11 02:25:54;;;;;;;2.00;0.70;;;;;;;-2.50;68.59;101277.75;5097471;28;20612;-76
2022/12/11 02:28:30;;;;;;;2.50;0.70;;;;;;;-2.43;68.77;101295.09;5097547;27;20055;-75
2022/12/11 02:31:00;;;;;;;2.45;0.60;;;;;;;-2.47;68.72;101292.34;5094936;28;20649;-75
2022/12/11 02:33:34;;;;;;;3.15;1.05;;;;;;;-2.45;68.61;101299.25;5097923;27;20043;-76
2022/12/11 02:36:03;;;;;;;2.58;1.23;;;;;;;-2.47;68.73;101294.91;5093905;28;20051;-74
2022/12/11 02:38:34;;;;;;;1.52;0.90;;;;;;;-2.46;68.89;101294.09;5095874;28;20094;-75
2022/12/11 02:41:04;;;;;;;2.08;0.70;;;;;;;-2.49;68.76;101293.16;5096855;27;20052;-75
2022/12/11 02:43:34;;;;;;;1.90;1.05;;;;;;;-2.51;68.54;101287.09;5094591;28;20130;-75
2022/12/11 02:46:04;;;;;;;3.45;0.70;;;;;;;-2.51;68.39;101284.53;5097947;28;20056;-76
2022/12/11 02:48:33;;;;;;;1.67;0.90;;;;;;;-2.54;68.85;101280.97;5098263;28;20976;-75
2022/12/11 02:51:03;;;;;;;2.35;0.73;;;;;;;-2.53;68.54;101288.72;5095952;28;20058;-75
2022/12/11 02:53:32;;;;;;;1.63;0.70;;;;;;;-2.55;68.37;101292.03;5092314;28;20044;-75
2022/12/11 02:56:03;;;;;;;1.73;0.63;;;;;;;-2.55;68.91;101295.44;5096328;28;20104;-75
2022/12/11 02:58:34;;;;;;;2.60;0.85;;;;;;;-2.56;68.66;101290.25;5094914;28;20047;-75
2022/12/11 03:01:01;;;;;;;2.35;0.70;;;;;;;-2.75;68.75;101260.47;5097475;28;20084;-75
2022/12/11 03:03:29;;;;;;;2.42;0.98;;;;;;;-2.80;68.64;101256.84;5094590;28;20133;-76
2022/12/11 03:05:56;;;;;;;1.52;0.70;;;;;;;-2.60;68.63;101286.69;5096604;28;20127;-75
2022/12/11 03:08:23;;;;;;;2.65;0.88;;;;;;;-2.60;68.62;101285.81;5092223;28;20040;-75
2022/12/11 03:10:50;;;;;;;3.45;0.85;;;;;;;-2.61;68.42;101290.06;5095341;28;20048;-76
2022/12/11 03:13:21;;;;;;;2.50;1.02;;;;;;;-2.63;68.60;101286.56;5091459;28;20047;-77
2022/12/11 03:16:00;;;;;;;2.08;0.85;;;;;;;-2.66;68.41;101281.31;5098294;28;20070;-76
2022/12/11 03:18:35;;;;;;;1.23;0.60;;;;;;;-2.64;68.35;101294.19;5096399;28;20063;-76
2022/12/11 03:21:08;;;;;;;2.23;0.40;;;;;;;-2.73;68.82;101276.78;5097325;28;20055;-75
2022/12/11 03:23:44;;;;;;;2.08;0.80;;;;;;;-2.65;68.65;101292.41;5095818;28;20127;-75
2022/12/11 03:26:13;;;;;;;3.22;1.00;;;;;;;-2.67;68.46;101299.19;5099003;28;20128;-74
2022/12/11 03:28:45;;;;;;;1.88;1.05;;;;;;;-2.70;68.75;101294.78;5096426;28;20156;-75
2022/12/11 03:31:21;;;;;;;4.35;1.23;;;;;;;-2.69;68.44;101299.09;5096740;28;20104;-75
2022/12/11 03:33:51;;;;;;;3.63;0.70;;;;;;;-2.71;68.70;101305.81;5098162;28;20052;-75
2022/12/11 03:36:22;;;;;;;1.20;0.70;;;;;;;-2.83;68.54;101280.59;5099491;28;20043;-75
2022/12/11 03:38:54;;;;;;;3.75;0.90;;;;;;;-2.70;68.60;101302.47;5097098;27;20044;-75
2022/12/11 03:41:24;;;;;;;3.33;1.17;;;;;;;-2.74;68.51;101293.75;5108314;28;20052;-75
2022/12/11 03:43:54;;;;;;;3.88;0.82;;;;;;;-2.72;68.72;101302.38;5098166;28;20047;-75
2022/12/11 03:46:27;;;;;;;2.58;1.27;;;;;;;-2.72;68.76;101291.28;5103525;28;20466;-74
2022/12/11 03:48:58;;;;;;;3.20;1.25;;;;;;;-2.73;68.53;101292.09;5104414;28;20438;-74
2022/12/11 03:51:25;;;;;;;1.90;0.88;;;;;;;-2.75;68.75;101301.38;5102033;28;20078;-73
2022/12/11 03:53:53;;;;;;;4.53;1.00;;;;;;;-2.86;68.51;101284.69;5099792;28;20054;-74
2022/12/11 03:56:21;;;;;;;1.35;0.90;;;;;;;-2.75;68.80;101306.50;5101958;28;20048;-75
2022/12/11 03:58:48;;;;;;;2.15;1.00;;;;;;;-2.75;68.57;101306.50;5108881;27;20051;-75
2022/12/11 04:01:15;;;;;;;3.58;1.13;;;;;;;-2.75;68.90;101309.06;5102846;28;20051;-76
2022/12/11 04:03:44;;;;;;;4.57;1.15;;;;;;;-2.75;68.53;101309.94;5101999;28;20044;-75
2022/12/11 04:06:10;;;;;;;1.30;1.05;;;;;;;-2.84;68.72;101295.88;5101175;28;20048;-75
2022/12/11 04:08:37;;;;;;;1.40;0.60;;;;;;;-2.77;68.82;101308.09;5099745;28;20052;-75
2022/12/11 04:15:00;;;;;;;1.98;0.88;;;;;;;-2.79;68.80;101299.47;5101021;28;20431;-74
2022/12/11 04:16:34;;;;;;;2.28;0.70;;;;;;;-2.78;68.71;101302.13;5098811;28;20044;-75
2022/12/11 04:24:31;;;;;;;1.30;0.55;;;;;;;-2.80;68.82;101307.97;5101540;28;20658;-75
2022/12/11 04:26:58;;;;;;;1.52;0.95;;;;;;;-2.79;68.58;101319.94;5098169;27;20052;-75
2022/12/11 04:29:24;;;;;;;1.45;0.57;;;;;;;-2.89;68.84;101294.78;5103678;28;20039;-75
2022/12/11 04:31:51;;;;;;;1.20;0.70;;;;;;;-2.84;69.00;101314.63;5099549;27;20047;-75
2022/12/11 04:34:20;;;;;;;2.92;0.68;;;;;;;-2.81;68.72;101307.09;5101682;28;20063;-75
2022/12/11 04:36:46;;;;;;;3.33;1.30;;;;;;;-2.80;68.76;101318.19;5102667;28;20059;-75
2022/12/11 04:39:13;;;;;;;2.03;0.52;;;;;;;-2.81;68.96;101317.34;5097070;28;20058;-76
2022/12/11 04:41:40;;;;;;;1.38;0.70;;;;;;;-3.03;68.74;101283.94;5101665;28;20043;-75
2022/12/11 04:44:07;;;;;;;2.28;0.70;;;;;;;-2.80;69.35;101325.88;5100894;28;20070;-75
2022/12/11 04:46:34;;;;;;;1.05;0.57;;;;;;;-2.82;69.16;101325.78;5096856;28;20052;-76
2022/12/11 04:49:01;;;;;;;3.17;0.98;;;;;;;-2.88;69.05;101310.19;5101771;28;20051;-75
2022/12/11 04:51:29;;;;;;;3.08;0.80;;;;;;;-3.03;68.95;101282.25;5098729;28;20527;-75
2022/12/11 04:53:56;;;;;;;2.10;0.68;;;;;;;-2.81;69.00;101319.03;5098820;28;20047;-75
2022/12/11 04:56:23;;;;;;;1.52;0.82;;;;;;;-2.79;69.29;101325.06;5100811;28;20056;-75
2022/12/11 04:58:49;;;;;;;2.80;1.25;;;;;;;-2.79;69.28;101330.16;5098551;28;20051;-75
2022/12/11 05:01:18;;;;;;;1.40;0.82;;;;;;;-2.81;69.22;101321.56;5098862;28;20051;-75
2022/12/11 05:03:45;;;;;;;1.83;1.08;;;;;;;-2.77;69.17;101331.13;5097495;28;20096;-76
2022/12/11 05:06:12;;;;;;;1.92;1.13;;;;;;;-2.81;69.31;101332.69;5099411;28;20047;-75
2022/12/11 05:08:42;;;;;;;3.65;0.80;;;;;;;-2.96;69.10;101307.31;5101018;28;20471;-75
2022/12/11 05:11:10;;;;;;;2.42;1.10;;;;;;;-2.75;69.38;101349.97;5094557;28;20067;-76
2022/12/11 05:13:37;;;;;;;2.33;1.23;;;;;;;-2.76;69.01;101346.53;5097949;28;20083;-75
2022/12/11 05:16:05;;;;;;;2.78;1.10;;;;;;;-2.75;69.09;101340.63;5103139;28;20632;-75
2022/12/11 05:18:32;;;;;;;2.60;1.05;;;;;;;-2.74;69.06;101344.03;5101243;28;20408;-75
2022/12/11 05:21:00;;;;;;;3.00;1.15;;;;;;;-2.74;69.08;101341.47;5101980;28;20582;-75
2022/12/11 05:23:27;;;;;;;2.13;0.90;;;;;;;-2.75;69.03;101343.16;5102539;28;20097;-75
2022/12/11 05:25:57;;;;;;;2.90;1.77;;;;;;;-2.73;69.41;101348.38;5101256;28;20047;-75
2022/12/11 05:28:26;;;;;;;2.97;0.95;;;;;;;-2.78;69.21;101342.16;5102039;28;20059;-75
2022/12/11 05:30:56;;;;;;;2.40;0.80;;;;;;;-2.75;68.93;101349.97;5099507;28;20139;-75
2022/12/11 05:33:23;;;;;;;1.80;1.00;;;;;;;-2.75;69.26;101352.53;5098049;28;20095;-76
2022/12/11 05:35:50;;;;;;;2.78;0.60;;;;;;;-2.75;69.10;101352.53;5101971;28;20054;-77
2022/12/11 05:38:17;;;;;;;3.42;1.08;;;;;;;-2.81;68.71;101342.91;5098494;28;20047;-75
2022/12/11 05:40:44;;;;;;;4.43;1.17;;;;;;;-2.75;68.98;101357.63;5099733;28;20048;-75
2022/12/11 05:43:12;;;;;;;2.38;1.00;;;;;;;-2.85;69.05;101338.44;5096933;28;20040;-75
2022/12/11 05:45:39;;;;;;;4.18;1.00;;;;;;;-2.74;68.90;101359.38;5057734;28;1136218;-75
2022/12/11 05:48:06;;;;;;;3.60;1.27;;;;;;;-2.75;69.13;101367.88;5100807;28;20039;-75
2022/12/11 05:50:33;;;;;;;2.63;1.10;;;;;;;-2.75;69.00;101363.63;5097328;28;20892;-75
2022/12/11 05:52:59;;;;;;;3.22;1.00;;;;;;;-2.75;68.70;101368.75;5101082;28;20468;-75
2022/12/11 05:55:26;;;;;;;2.70;0.70;;;;;;;-2.76;69.09;101359.31;5103444;28;20093;-75
2022/12/11 05:57:53;;;;;;;3.35;1.13;;;;;;;-2.74;68.95;101362.81;5102935;28;20048;-75
2022/12/11 06:00:21;;;;;;;3.00;0.95;;;;;;;-2.74;68.80;101369.59;5103634;28;20040;-74
2022/12/11 06:02:48;;;;;;;1.85;1.10;;;;;;;-2.74;68.72;101377.28;5098465;28;20596;-75
2022/12/11 06:05:15;;;;;;;3.58;0.90;;;;;;;-2.74;68.88;101377.28;5100619;28;20549;-75
2022/12/11 06:07:41;;;;;;;4.25;1.33;;;;;;;-2.74;68.94;101374.72;5102720;28;20419;-75
2022/12/11 06:10:09;;;;;;;2.10;0.95;;;;;;;-2.76;69.04;101376.31;5097963;28;20102;-75
2022/12/11 06:12:36;;;;;;;1.50;0.60;;;;;;;-2.75;69.05;101388.31;5100124;27;20530;-75
2022/12/11 06:15:04;;;;;;;4.90;1.50;;;;;;;-2.78;68.84;101377.97;5097743;28;20060;-75
2022/12/11 06:17:33;;;;;;;4.22;1.33;;;;;;;-2.74;68.90;101384.94;5098343;28;20044;-75
2022/12/11 06:20:00;;;;;;;2.10;0.68;;;;;;;-2.74;68.89;101390.06;5100003;28;20479;-75
2022/12/11 06:22:27;;;;;;;2.78;1.00;;;;;;;-2.79;68.77;101381.31;5098964;28;20048;-75
2022/12/11 06:24:53;;;;;;;4.18;1.10;;;;;;;-2.83;68.82;101379.44;5102435;28;20430;-75
2022/12/11 06:27:20;;;;;;;2.05;0.73;;;;;;;-2.72;68.99;101393.56;5100559;28;20048;-75
2022/12/11 06:29:47;;;;;;;4.53;2.05;;;;;;;-2.73;68.99;101404.63;5096621;28;20056;-75
2022/12/11 06:32:14;;;;;;;1.45;0.70;;;;;;;-2.73;68.99;101399.50;5098368;28;20077;-75
2022/12/11 06:34:42;;;;;;;2.90;0.90;;;;;;;-2.73;68.88;101402.06;5100642;28;20131;-75
2022/12/11 06:37:09;;;;;;;1.23;0.93;;;;;;;-2.73;69.28;101402.94;5100302;28;20051;-75
2022/12/11 06:39:36;;;;;;;1.55;0.85;;;;;;;-2.72;68.92;101404.66;5097014;28;20040;-75
2022/12/11 06:42:03;;;;;;;1.88;0.90;;;;;;;-2.72;68.94;101403.81;5100661;28;20112;-75
2022/12/11 06:44:29;;;;;;;2.35;0.75;;;;;;;-2.72;69.00;101403.81;5099628;27;20048;-75
2022/12/11 06:46:56;;;;;;;5.18;1.48;;;;;;;-2.72;69.05;101408.91;5100895;28;20047;-75
2022/12/11 06:49:23;;;;;;;2.85;1.08;;;;;;;-2.71;68.72;101402.97;5099826;28;20372;-75
2022/12/11 06:51:51;;;;;;;2.95;1.30;;;;;;;-2.74;69.05;101401.16;5099197;28;20456;-75
2022/12/11 06:54:18;;;;;;;2.17;0.85;;;;;;;-2.71;69.01;101410.66;5098367;27;20052;-76
2022/12/11 06:56:45;;;;;;;2.10;1.15;;;;;;;-2.77;68.83;101401.03;5099000;28;20161;-75
2022/12/11 06:59:12;;;;;;;6.45;1.10;;;;;;;-2.69;68.88;101418.41;5098088;28;20048;-76
2022/12/11 07:01:39;;;;;;;3.05;0.90;;;;;;;-2.71;68.76;101420.88;5092807;28;20116;-75
2022/12/11 07:04:06;;;;;;;1.92;0.88;;;;;;;-2.71;69.10;101418.31;5096161;28;20127;-75
2022/12/11 07:06:33;;;;;;;4.63;1.10;;;;;;;-2.70;68.94;101427.78;5097212;28;20047;-75
2022/12/11 07:09:03;;;;;;;3.85;1.40;;;;;;;-2.69;68.57;101431.19;5097113;28;20052;-75
2022/12/11 07:11:30;;;;;;;2.38;1.10;;;;;;;-2.70;68.76;101438.00;5096321;28;20051;-79
2022/12/11 07:13:58;;;;;;;3.65;1.02;;;;;;;-2.72;68.93;101426.81;5095182;28;20112;-76
2022/12/11 07:16:25;;;;;;;2.88;0.90;;;;;;;-2.71;68.83;101436.22;5093811;28;20040;-76
2022/12/11 07:18:52;;;;;;;3.50;1.25;;;;;;;-2.72;68.96;101434.50;5095291;28;20089;-75
2022/12/11 07:21:20;;;;;;;6.60;1.48;;;;;;;-2.71;68.98;101442.22;5051956;28;20043;-75
2022/12/11 07:23:47;;;;;;;4.70;1.70;;;;;;;-2.82;68.80;101424.63;5096515;28;20048;-75
2022/12/11 07:26:17;;;;;;;1.67;0.98;;;;;;;-2.71;68.90;101436.22;5094494;28;20053;-75
2022/12/11 07:28:45;;;;;;;3.05;1.10;;;;;;;-2.71;68.96;101434.53;5100665;28;20048;-76
2022/12/11 07:31:14;;;;;;;3.15;1.20;;;;;;;-2.73;68.94;101432.75;5094699;28;20047;-76
2022/12/11 07:33:41;;;;;;;3.28;0.98;;;;;;;-2.70;69.07;101448.22;5095535;28;20113;-77
2022/12/11 07:36:10;;;;;;;8.43;1.08;;;;;;;-2.71;68.88;101451.56;5094413;28;20051;-75
2022/12/11 07:38:37;;;;;;;4.78;1.23;;;;;;;-2.79;68.75;101437.56;5100598;28;20047;-75
2022/12/11 07:41:05;;;;;;;3.63;0.98;;;;;;;-2.76;68.76;101435.13;5094587;28;20044;-76
2022/12/11 07:43:34;;;;;;;3.83;1.35;;;;;;;-2.79;68.86;101427.31;5094636;28;20127;-76
2022/12/11 07:46:02;;;;;;;2.28;0.82;;;;;;;-2.77;68.62;101435.94;5098665;28;20441;-77
2022/12/11 07:48:29;;;;;;;3.13;1.13;;;;;;;-2.74;68.69;101442.06;5098018;28;20047;-76
2022/12/11 07:50:55;;;;;;;4.00;0.75;;;;;;;-2.71;69.00;101443.91;5098936;28;20096;-76
2022/12/11 07:53:22;;;;;;;3.53;1.17;;;;;;;-2.72;69.09;101440.47;5097210;28;20067;-76
2022/12/11 07:55:49;;;;;;;4.90;1.45;;;;;;;-2.72;68.89;101437.03;5095710;28;20051;-75
2022/12/11 07:58:16;;;;;;;7.10;1.45;;;;;;;-2.72;68.80;101450.69;5093150;28;20483;-75
2022/12/11 08:00:46;;;;;;;4.70;1.83;;;;;;;-2.71;68.95;101449.88;5097348;28;20359;-76
2022/12/11 08:03:13;;;;;;;3.25;1.05;;;;;;;-2.71;68.87;101443.91;5093312;28;20044;-76
2022/12/11 08:05:40;;;;;;;1.90;1.30;;;;;;;-2.72;68.92;101439.59;5099128;28;20052;-75
2022/12/11 08:08:06;;;;;;;2.97;0.98;;;;;;;-2.72;69.00;101447.28;5100415;28;20427;-75
2022/12/11 08:10:33;;;;;;;2.67;0.75;;;;;;;-2.78;68.74;101450.41;5102036;28;20044;-75
2022/12/11 08:13:00;;;;;;;5.15;1.20;;;;;;;-2.73;68.84;101450.66;5103196;28;20048;-76
2022/12/11 08:15:27;;;;;;;2.45;0.98;;;;;;;-2.74;68.85;101467.66;5095085;28;20044;-76
2022/12/11 08:17:55;;;;;;;3.80;1.35;;;;;;;-2.74;68.89;101459.09;5096165;28;20052;-75
2022/12/11 08:20:21;;;;;;;2.35;0.70;;;;;;;-2.74;68.91;101466.78;5096714;28;20457;-76
2022/12/11 08:22:48;;;;;;;2.45;1.10;;;;;;;-2.74;68.91;101466.78;5098847;28;20503;-76
2022/12/11 08:25:15;;;;;;;2.40;0.82;;;;;;;-2.74;69.07;101470.19;5100272;28;20442;-76
2022/12/11 08:27:42;;;;;;;3.70;0.93;;;;;;;-2.74;68.95;101466.78;5103846;28;20055;-78
2022/12/11 08:30:09;;;;;;;2.45;1.15;;;;;;;-2.74;68.90;101469.34;5107558;28;20043;-77
2022/12/11 08:32:36;;;;;;;2.90;1.15;;;;;;;-2.75;69.04;101472.72;5105434;28;20495;-78
2022/12/11 08:35:05;;;;;;;5.85;1.27;;;;;;;-2.74;68.95;101477.00;5099781;27;20055;-77
2022/12/11 08:37:31;;;;;;;2.03;0.93;;;;;;;-2.75;69.03;101475.25;5110372;27;20039;-77
2022/12/11 08:39:58;;;;;;;5.28;1.60;;;;;;;-2.81;68.75;101467.31;5101412;27;20046;-77
2022/12/11 08:42:25;;;;;;;4.18;1.00;;;;;;;-2.77;68.86;101477.72;5103270;28;20044;-77
2022/12/11 08:44:52;;;;;;;2.83;1.10;;;;;;;-2.87;69.11;101459.34;5106085;28;20059;-76
2022/12/11 08:47:18;;;;;;;2.90;0.65;;;;;;;-2.77;69.04;101472.63;5101568;28;20101;-77
2022/12/11 08:49:45;;;;;;;3.08;1.23;;;;;;;-2.77;68.97;101474.31;5105623;28;20101;-75
2022/12/11 08:52:13;;;;;;;3.83;1.00;;;;;;;-2.79;68.86;101475.91;5104801;28;20040;-76
2022/12/11 08:54:40;;;;;;;3.13;1.02;;;;;;;-2.79;69.04;101474.25;5101587;28;20055;-76
2022/12/11 08:57:07;;;;;;;3.42;0.77;;;;;;;-2.77;68.97;101481.97;5101393;27;20062;-77
2022/12/11 08:59:34;;;;;;;5.50;1.38;;;;;;;-2.77;69.11;101482.84;5104058;27;20704;-77
2022/12/11 09:02:00;;;;;;;3.30;1.20;;;;;;;-2.79;69.11;101478.47;5104154;28;20055;-76
2022/12/11 09:04:27;;;;;;;2.58;0.70;;;;;;;-2.83;68.93;101469.78;5103291;28;20046;-78
2022/12/11 09:06:54;;;;;;;1.65;1.20;;;;;;;-2.85;69.10;101467.94;5106477;28;20051;-77
2022/12/11 09:09:22;;;;;;;4.30;1.40;;;;;;;-2.75;69.26;101482.94;5103652;28;20054;-77
2022/12/11 09:11:50;;;;;;;2.55;1.17;;;;;;;-2.78;69.21;101486.22;5104082;27;20044;-78
2022/12/11 09:14:16;;;;;;;1.83;0.85;;;;;;;-2.89;69.19;101461.81;5104296;28;20931;-77
2022/12/11 09:16:43;;;;;;;1.27;0.77;;;;;;;-2.78;69.46;101472.56;5100471;27;20044;-77
2022/12/11 09:19:13;;;;;;;4.13;0.95;;;;;;;-2.73;69.31;101481.34;5101933;28;20074;-78
2022/12/11 09:21:40;;;;;;;2.75;1.05;;;;;;;-2.72;69.29;101485.63;5101048;27;20051;-76
2022/12/11 09:24:10;;;;;;;4.05;1.67;;;;;;;-2.73;69.58;101484.75;5102443;28;20118;-78
2022/12/11 09:26:40;;;;;;;2.25;0.75;;;;;;;-2.70;69.03;101481.47;5102657;28;20051;-77
2022/12/11 09:29:07;;;;;;;3.58;1.00;;;;;;;-2.71;69.07;101483.13;5106624;28;20508;-77
2022/12/11 09:31:36;;;;;;;2.15;1.17;;;;;;;-2.71;69.20;101483.13;5100186;28;20059;-77
2022/12/11 09:34:05;;;;;;;2.75;0.82;;;;;;;-2.69;69.53;101490.00;5102492;27;20056;-77
2022/12/11 09:36:32;;;;;;;3.78;1.10;;;;;;;-2.71;69.27;101485.69;5103904;27;20052;-77
2022/12/11 09:39:01;;;;;;;2.90;0.98;;;;;;;-2.68;69.10;101490.06;5099792;28;20093;-77
2022/12/11 09:41:39;;;;;;;3.13;1.40;;;;;;;-2.70;69.25;101484.03;5096670;28;20542;-78
2022/12/11 09:44:24;;;;;;;4.13;0.90;;;;;;;-2.68;69.31;101484.97;5097744;28;20081;-77
2022/12/11 09:46:51;;;;;;;2.00;1.08;;;;;;;-2.67;69.30;101484.16;5102146;28;20054;-77
2022/12/11 09:49:26;;;;;;;1.73;0.80;;;;;;;-2.65;69.24;101481.66;5101369;28;20035;-77
2022/12/11 09:52:04;;;;;;;1.90;1.42;;;;;;;-2.68;69.04;101477.28;5102501;28;20046;-76
2022/12/11 09:54:31;;;;;;;4.68;1.40;;;;;;;-2.66;69.24;101477.38;5101988;28;20328;-77
2022/12/11 09:57:12;;;;;;;5.90;1.50;;;;;;;-2.64;69.34;101481.75;5106827;28;20043;-76
2022/12/11 09:59:50;;;;;;;1.90;0.80;;;;;;;-2.65;69.30;101476.56;5101623;28;20044;-77
2022/12/11 10:02:27;;;;;;;1.60;0.90;;;;;;;-2.63;69.36;101474.94;5098888;28;20048;-77
2022/12/11 10:05:08;;;;;;;2.30;1.00;;;;;;;-2.68;69.70;101466.19;5106207;28;20392;-78
2022/12/11 10:07:46;;;;;;;2.53;1.10;;;;;;;-2.62;69.16;101476.69;5102003;28;20051;-77
2022/12/11 10:10:22;;;;;;;1.42;0.65;;;;;;;-2.62;69.30;101474.13;5102176;28;20536;-77
2022/12/11 10:13:01;;;;;;;2.92;1.23;;;;;;;-2.62;69.73;101475.03;5097204;28;20453;-77
2022/12/11 10:15:39;;;;;;;2.45;1.02;;;;;;;-2.60;69.66;101470.84;5102280;28;20516;-78
2022/12/11 10:18:12;;;;;;;3.55;1.27;;;;;;;-2.63;69.25;101457.91;5097942;28;20048;-77
2022/12/11 10:20:41;;;;;;;4.10;1.08;;;;;;;-2.58;69.62;101471.81;5104102;28;20067;-77
2022/12/11 10:23:13;;;;;;;2.58;1.00;;;;;;;-2.56;69.61;101465.09;5097550;28;20079;-77
2022/12/11 10:25:44;;;;;;;2.35;1.08;;;;;;;-2.62;69.46;101448.56;5099379;28;20480;-78
2022/12/11 10:28:14;;;;;;;3.65;1.13;;;;;;;-2.53;69.37;101465.22;5102595;28;20082;-78
2022/12/11 10:30:48;;;;;;;3.05;1.25;;;;;;;-2.52;69.54;101463.53;5106332;28;20122;-77
2022/12/11 10:33:20;;;;;;;5.10;1.00;;;;;;;-2.51;69.47;101471.25;5100257;28;20051;-77
2022/12/11 10:35:51;;;;;;;3.60;1.52;;;;;;;-2.50;69.61;101474.72;5100943;28;20134;-77
2022/12/11 10:38:25;;;;;;;3.40;1.08;;;;;;;-2.50;69.53;101477.28;5102113;28;20097;-77
2022/12/11 10:40:55;;;;;;;4.78;1.27;;;;;;;-2.47;69.67;101484.22;5103773;28;20050;-79
2022/12/11 10:43:34;;;;;;;1.98;0.70;;;;;;;-2.46;69.55;101480.84;5087923;28;20051;-77
2022/12/11 10:46:01;;;;;;;2.40;0.90;;;;;;;-2.44;69.25;101481.78;5101343;28;20797;-77
2022/12/11 10:48:28;;;;;;;6.35;1.38;;;;;;;-2.47;69.12;101479.09;5101297;27;20056;-77
2022/12/11 10:51:02;;;;;;;7.63;0.98;;;;;;;-2.46;69.62;101473.16;5105745;28;20043;-77
2022/12/11 10:53:30;;;;;;;3.05;1.45;;;;;;;-2.41;69.17;101484.50;5094386;28;20047;-77
2022/12/11 10:55:58;;;;;;;1.77;0.88;;;;;;;-2.41;69.39;101492.16;5104265;28;20453;-77
2022/12/11 10:58:27;;;;;;;1.90;0.85;;;;;;;-2.40;69.49;101483.69;5099201;28;20112;-77
2022/12/11 11:01:08;;;;;;;1.90;1.10;;;;;;;-2.38;69.33;101487.19;5105488;28;20047;-77
2022/12/11 11:03:42;;;;;;;2.53;0.73;;;;;;;-2.48;69.34;101467.97;5096313;28;20040;-77
2022/12/11 11:06:17;;;;;;;2.15;0.70;;;;;;;-2.36;69.29;101485.56;5104038;28;20051;-77
2022/12/11 11:08:46;;;;;;;2.53;0.85;;;;;;;-2.35;69.30;101490.75;5103886;28;20044;-77
2022/12/11 11:11:24;;;;;;;2.78;0.93;;;;;;;-2.35;69.46;101483.06;5100331;28;20040;-77
2022/12/11 11:13:52;;;;;;;2.85;0.60;;;;;;;-2.32;69.43;101482.34;5105743;28;20057;-77
2022/12/11 11:16:22;;;;;;;2.05;1.25;;;;;;;-2.43;69.37;101473.31;5101799;28;20044;-77
2022/12/11 11:18:54;;;;;;;2.28;0.80;;;;;;;-2.29;69.46;101490.16;5098177;28;20052;-75
2022/12/11 11:21:23;;;;;;;3.47;1.15;;;;;;;-2.31;69.28;101489.19;5107559;27;20054;-77
2022/12/11 11:23:51;;;;;;;3.30;1.00;;;;;;;-2.27;69.00;101496.22;5102402;28;20115;-75
2022/12/11 11:26:21;;;;;;;3.75;0.70;;;;;;;-2.25;69.48;101489.47;5094811;28;20048;-76
2022/12/11 11:28:49;;;;;;;2.50;1.10;;;;;;;-2.26;69.46;101480.94;5095591;28;20863;-76
2022/12/11 11:31:18;;;;;;;3.40;0.95;;;;;;;-2.26;69.11;101486.03;5101562;28;20086;-76
2022/12/11 11:33:54;;;;;;;3.20;0.93;;;;;;;-2.24;69.26;101481.00;5092589;28;20491;-77
2022/12/11 11:36:24;;;;;;;1.92;1.00;;;;;;;-2.21;69.08;101490.50;5095290;28;20152;-75
2022/12/11 11:39:08;;;;;;;2.28;0.98;;;;;;;-2.23;69.20;101487.88;5095690;28;20047;-76
2022/12/11 11:41:46;;;;;;;1.42;0.57;;;;;;;-2.20;69.51;101485.44;5094773;28;20040;-76